sensor_id;sensor_type;location;lat;lon;timestamp;temperature;humidity
80706;DHT22;70229;48.010;7.852;2023-07-20T00:01:45;22.80;52.90
80706;DHT22;70229;48.010;7.852;2023-07-20T00:04:11;22.80;53.50
80706;DHT22;70229;48.010;7.852;2023-07-20T00:06:37;22.80;53.80
80706;DHT22;70229;48.010;7.852;2023-07-20T00:09:08;22.60;54.00
80706;DHT22;70229;48.010;7.852;2023-07-20T00:11:36;22.80;54.20
80706;DHT22;70229;48.010;7.852;2023-07-20T00:14:06;22.70;54.50
80706;DHT22;70229;48.010;7.852;2023-07-20T00:16:32;22.70;54.80
80706;DHT22;70229;48.010;7.852;2023-07-20T00:18:57;22.70;54.10
80706;DHT22;70229;48.010;7.852;2023-07-20T00:21:23;22.80;52.90
80706;DHT22;70229;48.010;7.852;2023-07-20T00:23:49;22.80;53.30
80706;DHT22;70229;48.010;7.852;2023-07-20T00:26:14;22.70;53.40
80706;DHT22;70229;48.010;7.852;2023-07-20T00:28:40;22.90;54.20
80706;DHT22;70229;48.010;7.852;2023-07-20T00:31:06;22.80;55.00
80706;DHT22;70229;48.010;7.852;2023-07-20T00:33:32;22.80;55.20
80706;DHT22;70229;48.010;7.852;2023-07-20T00:35:57;22.70;55.00
80706;DHT22;70229;48.010;7.852;2023-07-20T00:38:23;22.70;54.60
80706;DHT22;70229;48.010;7.852;2023-07-20T00:40:49;22.70;56.00
80706;DHT22;70229;48.010;7.852;2023-07-20T00:43:15;22.70;55.70
80706;DHT22;70229;48.010;7.852;2023-07-20T00:45:41;22.60;55.60
80706;DHT22;70229;48.010;7.852;2023-07-20T00:48:07;22.60;55.40
80706;DHT22;70229;48.010;7.852;2023-07-20T00:50:33;22.70;55.30
80706;DHT22;70229;48.010;7.852;2023-07-20T00:52:59;22.50;55.30
80706;DHT22;70229;48.010;7.852;2023-07-20T00:55:26;22.60;55.50
80706;DHT22;70229;48.010;7.852;2023-07-20T00:57:53;22.60;56.50
80706;DHT22;70229;48.010;7.852;2023-07-20T01:00:19;22.70;55.70
80706;DHT22;70229;48.010;7.852;2023-07-20T01:02:45;22.60;55.20
80706;DHT22;70229;48.010;7.852;2023-07-20T01:05:11;22.50;55.50
80706;DHT22;70229;48.010;7.852;2023-07-20T01:07:52;22.70;55.60
80706;DHT22;70229;48.010;7.852;2023-07-20T01:10:25;22.30;56.00
80706;DHT22;70229;48.010;7.852;2023-07-20T01:12:55;22.30;56.60
80706;DHT22;70229;48.010;7.852;2023-07-20T01:15:20;22.40;56.30
80706;DHT22;70229;48.010;7.852;2023-07-20T01:17:46;22.40;56.30
80706;DHT22;70229;48.010;7.852;2023-07-20T01:20:16;22.40;55.30
80706;DHT22;70229;48.010;7.852;2023-07-20T01:33:50;22.10;56.90
80706;DHT22;70229;48.010;7.852;2023-07-20T01:36:18;22.20;56.60
80706;DHT22;70229;48.010;7.852;2023-07-20T01:38:44;22.30;57.00
80706;DHT22;70229;48.010;7.852;2023-07-20T01:41:11;22.00;56.70
80706;DHT22;70229;48.010;7.852;2023-07-20T01:43:37;22.10;56.20
80706;DHT22;70229;48.010;7.852;2023-07-20T01:46:02;22.10;56.30
80706;DHT22;70229;48.010;7.852;2023-07-20T01:48:28;22.10;55.40
80706;DHT22;70229;48.010;7.852;2023-07-20T01:50:53;22.10;56.10
80706;DHT22;70229;48.010;7.852;2023-07-20T01:53:20;22.10;56.00
80706;DHT22;70229;48.010;7.852;2023-07-20T01:55:46;22.00;56.20
80706;DHT22;70229;48.010;7.852;2023-07-20T01:58:11;22.30;55.50
80706;DHT22;70229;48.010;7.852;2023-07-20T02:00:37;22.00;55.30
80706;DHT22;70229;48.010;7.852;2023-07-20T02:03:03;21.90;57.00
80706;DHT22;70229;48.010;7.852;2023-07-20T02:05:28;21.90;55.30
80706;DHT22;70229;48.010;7.852;2023-07-20T02:07:54;22.00;55.40
80706;DHT22;70229;48.010;7.852;2023-07-20T02:10:20;21.90;57.30
80706;DHT22;70229;48.010;7.852;2023-07-20T02:12:46;22.00;57.60
80706;DHT22;70229;48.010;7.852;2023-07-20T02:15:11;21.90;57.10
80706;DHT22;70229;48.010;7.852;2023-07-20T02:17:39;21.80;57.10
80706;DHT22;70229;48.010;7.852;2023-07-20T02:20:07;21.80;58.10
80706;DHT22;70229;48.010;7.852;2023-07-20T02:22:34;21.70;58.70
80706;DHT22;70229;48.010;7.852;2023-07-20T02:25:00;21.70;58.10
80706;DHT22;70229;48.010;7.852;2023-07-20T02:27:25;21.70;58.40
80706;DHT22;70229;48.010;7.852;2023-07-20T02:29:51;21.80;58.20
80706;DHT22;70229;48.010;7.852;2023-07-20T02:32:16;21.60;58.20
80706;DHT22;70229;48.010;7.852;2023-07-20T02:34:45;21.50;58.10
80706;DHT22;70229;48.010;7.852;2023-07-20T02:37:11;21.90;58.50
80706;DHT22;70229;48.010;7.852;2023-07-20T02:39:38;22.20;59.10
80706;DHT22;70229;48.010;7.852;2023-07-20T02:42:04;22.90;59.00
80706;DHT22;70229;48.010;7.852;2023-07-20T02:44:32;21.50;58.20
80706;DHT22;70229;48.010;7.852;2023-07-20T02:46:58;21.40;59.10
80706;DHT22;70229;48.010;7.852;2023-07-20T02:49:24;21.40;59.10
80706;DHT22;70229;48.010;7.852;2023-07-20T02:51:55;21.60;58.70
80706;DHT22;70229;48.010;7.852;2023-07-20T02:54:28;22.70;59.80
80706;DHT22;70229;48.010;7.852;2023-07-20T02:57:08;21.20;59.30
80706;DHT22;70229;48.010;7.852;2023-07-20T02:59:42;20.90;59.70
80706;DHT22;70229;48.010;7.852;2023-07-20T03:02:44;22.20;60.60
80706;DHT22;70229;48.010;7.852;2023-07-20T03:05:23;20.70;59.40
80706;DHT22;70229;48.010;7.852;2023-07-20T03:08:00;20.80;59.70
80706;DHT22;70229;48.010;7.852;2023-07-20T03:10:31;20.60;59.20
80706;DHT22;70229;48.010;7.852;2023-07-20T03:13:05;20.60;60.00
80706;DHT22;70229;48.010;7.852;2023-07-20T03:16:05;20.60;60.30
80706;DHT22;70229;48.010;7.852;2023-07-20T03:18:30;20.70;60.20
80706;DHT22;70229;48.010;7.852;2023-07-20T03:23:59;20.60;60.40
80706;DHT22;70229;48.010;7.852;2023-07-20T03:26:48;20.70;60.50
80706;DHT22;70229;48.010;7.852;2023-07-20T03:29:34;20.80;60.30
80706;DHT22;70229;48.010;7.852;2023-07-20T03:32:00;20.90;61.10
80706;DHT22;70229;48.010;7.852;2023-07-20T03:34:28;22.30;61.80
80706;DHT22;70229;48.010;7.852;2023-07-20T03:36:54;20.30;59.90
80706;DHT22;70229;48.010;7.852;2023-07-20T03:39:24;20.40;61.20
80706;DHT22;70229;48.010;7.852;2023-07-20T03:41:52;20.40;60.10
80706;DHT22;70229;48.010;7.852;2023-07-20T03:44:32;21.30;61.30
80706;DHT22;70229;48.010;7.852;2023-07-20T03:47:00;20.40;61.00
80706;DHT22;70229;48.010;7.852;2023-07-20T03:49:34;20.30;60.80
80706;DHT22;70229;48.010;7.852;2023-07-20T03:52:05;19.90;60.20
80706;DHT22;70229;48.010;7.852;2023-07-20T03:57:22;20.50;61.20
80706;DHT22;70229;48.010;7.852;2023-07-20T04:00:12;20.60;60.50
80706;DHT22;70229;48.010;7.852;2023-07-20T04:02:47;20.40;61.00
80706;DHT22;70229;48.010;7.852;2023-07-20T04:05:16;20.40;60.90
80706;DHT22;70229;48.010;7.852;2023-07-20T04:07:45;20.30;61.00
80706;DHT22;70229;48.010;7.852;2023-07-20T04:10:19;20.40;61.20
80706;DHT22;70229;48.010;7.852;2023-07-20T04:12:50;20.50;61.40
80706;DHT22;70229;48.010;7.852;2023-07-20T04:15:47;20.80;61.20
80706;DHT22;70229;48.010;7.852;2023-07-20T04:18:28;20.50;61.30
80706;DHT22;70229;48.010;7.852;2023-07-20T04:20:59;20.50;62.50
80706;DHT22;70229;48.010;7.852;2023-07-20T04:23:28;21.00;62.30
80706;DHT22;70229;48.010;7.852;2023-07-20T04:25:57;20.60;61.90
80706;DHT22;70229;48.010;7.852;2023-07-20T04:28:22;20.50;61.20
80706;DHT22;70229;48.010;7.852;2023-07-20T04:30:49;21.40;62.00
80706;DHT22;70229;48.010;7.852;2023-07-20T04:33:21;20.60;61.30
80706;DHT22;70229;48.010;7.852;2023-07-20T04:35:53;20.60;61.40
80706;DHT22;70229;48.010;7.852;2023-07-20T04:38:32;20.20;61.70
80706;DHT22;70229;48.010;7.852;2023-07-20T04:41:12;19.50;61.40
80706;DHT22;70229;48.010;7.852;2023-07-20T04:43:50;20.50;61.70
80706;DHT22;70229;48.010;7.852;2023-07-20T04:46:15;20.80;62.30
80706;DHT22;70229;48.010;7.852;2023-07-20T04:48:47;21.00;62.30
80706;DHT22;70229;48.010;7.852;2023-07-20T04:51:15;19.80;62.70
80706;DHT22;70229;48.010;7.852;2023-07-20T04:53:46;20.50;63.00
80706;DHT22;70229;48.010;7.852;2023-07-20T04:56:15;21.10;61.20
80706;DHT22;70229;48.010;7.852;2023-07-20T04:58:41;20.20;62.40
80706;DHT22;70229;48.010;7.852;2023-07-20T05:01:09;20.00;61.80
80706;DHT22;70229;48.010;7.852;2023-07-20T05:03:50;20.40;62.60
80706;DHT22;70229;48.010;7.852;2023-07-20T05:06:18;20.00;62.60
80706;DHT22;70229;48.010;7.852;2023-07-20T05:08:56;20.90;62.90
80706;DHT22;70229;48.010;7.852;2023-07-20T05:11:22;20.30;62.00
80706;DHT22;70229;48.010;7.852;2023-07-20T05:13:50;20.90;62.50
80706;DHT22;70229;48.010;7.852;2023-07-20T05:16:16;20.20;61.80
80706;DHT22;70229;48.010;7.852;2023-07-20T05:18:54;20.40;63.70
80706;DHT22;70229;48.010;7.852;2023-07-20T05:21:24;21.20;64.20
80706;DHT22;70229;48.010;7.852;2023-07-20T05:23:50;19.90;63.90
80706;DHT22;70229;48.010;7.852;2023-07-20T05:26:15;19.90;64.40
80706;DHT22;70229;48.010;7.852;2023-07-20T05:28:41;20.10;64.40
80706;DHT22;70229;48.010;7.852;2023-07-20T05:31:07;21.50;64.80
80706;DHT22;70229;48.010;7.852;2023-07-20T05:33:35;20.40;64.00
80706;DHT22;70229;48.010;7.852;2023-07-20T05:36:01;21.00;64.30
80706;DHT22;70229;48.010;7.852;2023-07-20T05:38:27;20.70;63.60
80706;DHT22;70229;48.010;7.852;2023-07-20T05:40:58;20.60;63.30
80706;DHT22;70229;48.010;7.852;2023-07-20T05:43:24;20.70;63.30
80706;DHT22;70229;48.010;7.852;2023-07-20T05:45:50;20.70;62.60
80706;DHT22;70229;48.010;7.852;2023-07-20T05:48:17;20.70;63.70
80706;DHT22;70229;48.010;7.852;2023-07-20T05:50:43;20.80;63.90
80706;DHT22;70229;48.010;7.852;2023-07-20T05:53:09;21.80;64.10
80706;DHT22;70229;48.010;7.852;2023-07-20T05:55:34;20.80;63.30
80706;DHT22;70229;48.010;7.852;2023-07-20T05:58:00;21.30;63.90
80706;DHT22;70229;48.010;7.852;2023-07-20T06:00:26;21.10;63.70
80706;DHT22;70229;48.010;7.852;2023-07-20T06:02:53;21.20;61.50
80706;DHT22;70229;48.010;7.852;2023-07-20T06:05:19;22.00;63.00
80706;DHT22;70229;48.010;7.852;2023-07-20T06:07:46;21.00;61.80
80706;DHT22;70229;48.010;7.852;2023-07-20T06:10:12;21.10;62.60
80706;DHT22;70229;48.010;7.852;2023-07-20T06:12:37;21.00;63.20
80706;DHT22;70229;48.010;7.852;2023-07-20T06:15:04;21.40;63.40
80706;DHT22;70229;48.010;7.852;2023-07-20T06:17:30;21.00;62.60
80706;DHT22;70229;48.010;7.852;2023-07-20T06:19:56;21.60;63.80
80706;DHT22;70229;48.010;7.852;2023-07-20T06:22:22;21.10;63.20
80706;DHT22;70229;48.010;7.852;2023-07-20T06:24:47;21.20;64.20
80706;DHT22;70229;48.010;7.852;2023-07-20T06:27:13;21.60;62.70
80706;DHT22;70229;48.010;7.852;2023-07-20T06:29:39;20.50;62.30
80706;DHT22;70229;48.010;7.852;2023-07-20T06:32:05;21.50;62.50
80706;DHT22;70229;48.010;7.852;2023-07-20T06:34:31;21.40;61.60
80706;DHT22;70229;48.010;7.852;2023-07-20T06:36:56;21.60;61.60
80706;DHT22;70229;48.010;7.852;2023-07-20T06:39:22;21.70;62.00
80706;DHT22;70229;48.010;7.852;2023-07-20T06:41:48;21.90;62.00
80706;DHT22;70229;48.010;7.852;2023-07-20T06:44:13;21.60;60.50
80706;DHT22;70229;48.010;7.852;2023-07-20T06:46:39;21.80;61.90
80706;DHT22;70229;48.010;7.852;2023-07-20T06:49:06;21.70;62.30
80706;DHT22;70229;48.010;7.852;2023-07-20T06:51:33;21.90;63.20
80706;DHT22;70229;48.010;7.852;2023-07-20T06:53:58;21.90;61.90
80706;DHT22;70229;48.010;7.852;2023-07-20T06:56:24;22.10;61.80
80706;DHT22;70229;48.010;7.852;2023-07-20T06:58:49;22.20;61.70
80706;DHT22;70229;48.010;7.852;2023-07-20T07:01:15;22.70;60.50
80706;DHT22;70229;48.010;7.852;2023-07-20T07:03:41;22.30;60.50
80706;DHT22;70229;48.010;7.852;2023-07-20T07:06:06;22.60;59.60
80706;DHT22;70229;48.010;7.852;2023-07-20T07:08:32;22.50;60.00
80706;DHT22;70229;48.010;7.852;2023-07-20T07:10:57;22.60;59.80
80706;DHT22;70229;48.010;7.852;2023-07-20T07:13:23;22.60;58.50
80706;DHT22;70229;48.010;7.852;2023-07-20T07:15:48;22.60;57.50
80706;DHT22;70229;48.010;7.852;2023-07-20T07:18:14;22.60;57.40
80706;DHT22;70229;48.010;7.852;2023-07-20T07:20:39;22.60;57.10
80706;DHT22;70229;48.010;7.852;2023-07-20T07:23:05;22.40;55.40
80706;DHT22;70229;48.010;7.852;2023-07-20T07:25:31;22.20;56.20
80706;DHT22;70229;48.010;7.852;2023-07-20T07:27:57;22.40;56.70
80706;DHT22;70229;48.010;7.852;2023-07-20T07:30:23;22.60;56.40
80706;DHT22;70229;48.010;7.852;2023-07-20T07:32:48;22.70;56.80
80706;DHT22;70229;48.010;7.852;2023-07-20T07:35:14;22.60;55.30
80706;DHT22;70229;48.010;7.852;2023-07-20T07:37:40;22.70;54.90
80706;DHT22;70229;48.010;7.852;2023-07-20T07:40:08;22.80;54.40
80706;DHT22;70229;48.010;7.852;2023-07-20T07:42:33;22.70;53.90
80706;DHT22;70229;48.010;7.852;2023-07-20T07:44:59;22.70;53.00
80706;DHT22;70229;48.010;7.852;2023-07-20T07:47:25;22.90;53.50
80706;DHT22;70229;48.010;7.852;2023-07-20T07:49:50;22.70;54.70
80706;DHT22;70229;48.010;7.852;2023-07-20T07:52:16;22.80;54.20
80706;DHT22;70229;48.010;7.852;2023-07-20T07:54:42;23.00;54.20
80706;DHT22;70229;48.010;7.852;2023-07-20T07:57:07;23.20;54.60
80706;DHT22;70229;48.010;7.852;2023-07-20T07:59:33;23.50;53.60
80706;DHT22;70229;48.010;7.852;2023-07-20T08:02:03;23.30;52.90
80706;DHT22;70229;48.010;7.852;2023-07-20T08:04:29;23.40;53.30
80706;DHT22;70229;48.010;7.852;2023-07-20T08:06:55;23.50;52.30
80706;DHT22;70229;48.010;7.852;2023-07-20T08:09:21;24.20;52.80
80706;DHT22;70229;48.010;7.852;2023-07-20T08:11:46;23.80;52.30
80706;DHT22;70229;48.010;7.852;2023-07-20T08:14:13;23.70;53.20
80706;DHT22;70229;48.010;7.852;2023-07-20T08:16:39;23.80;52.00
80706;DHT22;70229;48.010;7.852;2023-07-20T08:19:04;23.70;50.40
80706;DHT22;70229;48.010;7.852;2023-07-20T08:21:30;23.40;52.40
80706;DHT22;70229;48.010;7.852;2023-07-20T08:23:55;23.50;52.80
80706;DHT22;70229;48.010;7.852;2023-07-20T08:26:21;23.50;53.30
80706;DHT22;70229;48.010;7.852;2023-07-20T08:28:48;23.50;53.80
80706;DHT22;70229;48.010;7.852;2023-07-20T08:31:13;23.50;53.50
80706;DHT22;70229;48.010;7.852;2023-07-20T08:33:39;23.60;53.20
80706;DHT22;70229;48.010;7.852;2023-07-20T08:36:05;23.70;53.20
80706;DHT22;70229;48.010;7.852;2023-07-20T08:38:31;23.70;52.40
80706;DHT22;70229;48.010;7.852;2023-07-20T08:40:57;23.80;53.10
80706;DHT22;70229;48.010;7.852;2023-07-20T08:43:25;23.80;52.60
80706;DHT22;70229;48.010;7.852;2023-07-20T08:45:52;23.90;51.40
80706;DHT22;70229;48.010;7.852;2023-07-20T08:48:20;23.80;50.10
80706;DHT22;70229;48.010;7.852;2023-07-20T08:50:49;24.00;52.10
80706;DHT22;70229;48.010;7.852;2023-07-20T08:53:15;24.20;51.30
80706;DHT22;70229;48.010;7.852;2023-07-20T08:55:44;24.40;51.70
80706;DHT22;70229;48.010;7.852;2023-07-20T08:58:12;24.60;51.50
80706;DHT22;70229;48.010;7.852;2023-07-20T09:00:38;24.70;50.10
80706;DHT22;70229;48.010;7.852;2023-07-20T09:03:04;24.80;49.90
80706;DHT22;70229;48.010;7.852;2023-07-20T09:05:30;25.00;49.60
80706;DHT22;70229;48.010;7.852;2023-07-20T09:07:56;25.00;48.20
80706;DHT22;70229;48.010;7.852;2023-07-20T09:10:23;24.60;48.10
80706;DHT22;70229;48.010;7.852;2023-07-20T09:12:49;24.80;50.20
80706;DHT22;70229;48.010;7.852;2023-07-20T09:15:15;25.20;49.10
80706;DHT22;70229;48.010;7.852;2023-07-20T09:17:49;25.10;47.30
80706;DHT22;70229;48.010;7.852;2023-07-20T09:20:16;25.10;48.90
80706;DHT22;70229;48.010;7.852;2023-07-20T09:22:43;25.30;49.00
80706;DHT22;70229;48.010;7.852;2023-07-20T09:25:18;25.40;47.60
80706;DHT22;70229;48.010;7.852;2023-07-20T09:27:48;25.10;47.30
80706;DHT22;70229;48.010;7.852;2023-07-20T09:30:15;25.40;49.60
80706;DHT22;70229;48.010;7.852;2023-07-20T09:32:46;25.60;48.80
80706;DHT22;70229;48.010;7.852;2023-07-20T09:35:16;25.60;46.00
80706;DHT22;70229;48.010;7.852;2023-07-20T09:37:50;25.50;48.30
80706;DHT22;70229;48.010;7.852;2023-07-20T09:40:18;25.60;49.30
80706;DHT22;70229;48.010;7.852;2023-07-20T09:42:44;25.80;47.90
80706;DHT22;70229;48.010;7.852;2023-07-20T09:45:10;26.00;48.10
80706;DHT22;70229;48.010;7.852;2023-07-20T09:47:37;26.10;47.00
80706;DHT22;70229;48.010;7.852;2023-07-20T09:50:04;26.00;46.70
80706;DHT22;70229;48.010;7.852;2023-07-20T09:52:31;26.20;47.90
80706;DHT22;70229;48.010;7.852;2023-07-20T09:54:57;26.40;47.20
80706;DHT22;70229;48.010;7.852;2023-07-20T09:57:23;26.60;46.50
80706;DHT22;70229;48.010;7.852;2023-07-20T09:59:50;26.50;45.70
80706;DHT22;70229;48.010;7.852;2023-07-20T10:02:21;26.20;46.20
80706;DHT22;70229;48.010;7.852;2023-07-20T10:04:52;26.50;46.40
80706;DHT22;70229;48.010;7.852;2023-07-20T10:07:19;26.70;47.30
80706;DHT22;70229;48.010;7.852;2023-07-20T10:09:48;26.50;45.40
80706;DHT22;70229;48.010;7.852;2023-07-20T10:12:16;26.50;45.90
80706;DHT22;70229;48.010;7.852;2023-07-20T10:14:48;26.70;45.70
80706;DHT22;70229;48.010;7.852;2023-07-20T10:17:17;26.70;46.30
80706;DHT22;70229;48.010;7.852;2023-07-20T10:19:47;26.80;46.80
80706;DHT22;70229;48.010;7.852;2023-07-20T10:22:19;26.40;44.30
80706;DHT22;70229;48.010;7.852;2023-07-20T10:24:47;26.50;46.20
80706;DHT22;70229;48.010;7.852;2023-07-20T10:27:14;26.70;43.50
80706;DHT22;70229;48.010;7.852;2023-07-20T10:29:40;26.80;43.70
80706;DHT22;70229;48.010;7.852;2023-07-20T10:32:08;27.00;44.10
80706;DHT22;70229;48.010;7.852;2023-07-20T10:34:34;27.10;44.30
80706;DHT22;70229;48.010;7.852;2023-07-20T10:36:59;27.40;45.90
80706;DHT22;70229;48.010;7.852;2023-07-20T10:39:27;27.40;43.10
80706;DHT22;70229;48.010;7.852;2023-07-20T10:42:01;27.00;43.40
80706;DHT22;70229;48.010;7.852;2023-07-20T10:44:27;26.50;44.60
80706;DHT22;70229;48.010;7.852;2023-07-20T10:47:00;26.60;44.50
80706;DHT22;70229;48.010;7.852;2023-07-20T10:49:26;26.10;43.40
80706;DHT22;70229;48.010;7.852;2023-07-20T10:52:00;26.00;44.80
80706;DHT22;70229;48.010;7.852;2023-07-20T10:56:56;25.90;45.80
80706;DHT22;70229;48.010;7.852;2023-07-20T11:01:54;26.40;44.50
80706;DHT22;70229;48.010;7.852;2023-07-20T11:04:41;26.20;43.70
80706;DHT22;70229;48.010;7.852;2023-07-20T11:07:07;26.40;44.70
80706;DHT22;70229;48.010;7.852;2023-07-20T11:09:37;26.80;43.50
80706;DHT22;70229;48.010;7.852;2023-07-20T11:12:29;26.80;45.60
80706;DHT22;70229;48.010;7.852;2023-07-20T11:14:56;26.50;45.20
80706;DHT22;70229;48.010;7.852;2023-07-20T11:17:29;26.30;44.80
80706;DHT22;70229;48.010;7.852;2023-07-20T11:19:56;26.20;43.80
80706;DHT22;70229;48.010;7.852;2023-07-20T11:22:22;26.20;44.20
80706;DHT22;70229;48.010;7.852;2023-07-20T11:24:48;26.70;45.60
80706;DHT22;70229;48.010;7.852;2023-07-20T11:27:14;27.20;45.00
80706;DHT22;70229;48.010;7.852;2023-07-20T11:29:40;27.40;43.80
80706;DHT22;70229;48.010;7.852;2023-07-20T11:32:06;27.30;44.30
80706;DHT22;70229;48.010;7.852;2023-07-20T11:34:33;27.20;43.20
80706;DHT22;70229;48.010;7.852;2023-07-20T11:36:59;27.40;46.10
80706;DHT22;70229;48.010;7.852;2023-07-20T11:39:25;27.30;43.80
80706;DHT22;70229;48.010;7.852;2023-07-20T11:41:52;27.50;43.70
80706;DHT22;70229;48.010;7.852;2023-07-20T11:44:19;27.80;42.60
80706;DHT22;70229;48.010;7.852;2023-07-20T11:47:09;28.10;43.00
80706;DHT22;70229;48.010;7.852;2023-07-20T11:49:43;27.30;42.50
80706;DHT22;70229;48.010;7.852;2023-07-20T11:52:11;27.90;42.30
80706;DHT22;70229;48.010;7.852;2023-07-20T11:54:39;27.60;43.30
80706;DHT22;70229;48.010;7.852;2023-07-20T11:57:05;27.80;42.70
80706;DHT22;70229;48.010;7.852;2023-07-20T11:59:31;28.20;42.80
80706;DHT22;70229;48.010;7.852;2023-07-20T12:01:58;28.30;41.70
80706;DHT22;70229;48.010;7.852;2023-07-20T12:04:24;28.60;41.20
80706;DHT22;70229;48.010;7.852;2023-07-20T12:06:49;28.70;40.50
80706;DHT22;70229;48.010;7.852;2023-07-20T12:09:16;28.70;43.10
80706;DHT22;70229;48.010;7.852;2023-07-20T12:11:43;28.90;41.40
80706;DHT22;70229;48.010;7.852;2023-07-20T12:14:10;28.80;41.80
80706;DHT22;70229;48.010;7.852;2023-07-20T12:16:37;29.00;43.10
80706;DHT22;70229;48.010;7.852;2023-07-20T12:19:08;28.90;41.90
80706;DHT22;70229;48.010;7.852;2023-07-20T12:21:35;28.90;40.90
80706;DHT22;70229;48.010;7.852;2023-07-20T12:24:04;28.80;39.80
80706;DHT22;70229;48.010;7.852;2023-07-20T12:26:31;28.80;41.70
80706;DHT22;70229;48.010;7.852;2023-07-20T12:28:57;28.60;40.80
80706;DHT22;70229;48.010;7.852;2023-07-20T12:31:24;28.60;43.00
80706;DHT22;70229;48.010;7.852;2023-07-20T12:33:50;28.70;41.90
80706;DHT22;70229;48.010;7.852;2023-07-20T12:36:17;28.80;41.50
80706;DHT22;70229;48.010;7.852;2023-07-20T12:38:43;28.80;41.50
80706;DHT22;70229;48.010;7.852;2023-07-20T12:41:10;28.80;42.20
80706;DHT22;70229;48.010;7.852;2023-07-20T12:43:43;29.20;40.50
80706;DHT22;70229;48.010;7.852;2023-07-20T12:46:09;29.50;40.00
80706;DHT22;70229;48.010;7.852;2023-07-20T12:48:36;29.60;42.00
80706;DHT22;70229;48.010;7.852;2023-07-20T12:51:06;29.60;40.40
80706;DHT22;70229;48.010;7.852;2023-07-20T12:53:33;29.90;40.50
80706;DHT22;70229;48.010;7.852;2023-07-20T12:56:02;30.10;39.40
80706;DHT22;70229;48.010;7.852;2023-07-20T12:58:28;29.80;38.70
80706;DHT22;70229;48.010;7.852;2023-07-20T13:00:53;29.40;39.40
80706;DHT22;70229;48.010;7.852;2023-07-20T13:03:19;29.50;40.70
80706;DHT22;70229;48.010;7.852;2023-07-20T13:05:48;29.40;39.40
80706;DHT22;70229;48.010;7.852;2023-07-20T13:08:15;29.40;39.50
80706;DHT22;70229;48.010;7.852;2023-07-20T13:10:41;29.40;39.20
80706;DHT22;70229;48.010;7.852;2023-07-20T13:13:07;29.80;40.50
80706;DHT22;70229;48.010;7.852;2023-07-20T13:15:40;29.70;39.00
80706;DHT22;70229;48.010;7.852;2023-07-20T13:18:06;29.60;38.40
80706;DHT22;70229;48.010;7.852;2023-07-20T13:20:32;29.40;40.80
80706;DHT22;70229;48.010;7.852;2023-07-20T13:22:57;29.70;38.80
80706;DHT22;70229;48.010;7.852;2023-07-20T13:25:23;29.70;40.20
80706;DHT22;70229;48.010;7.852;2023-07-20T13:27:49;29.70;38.60
80706;DHT22;70229;48.010;7.852;2023-07-20T13:30:15;29.90;39.00
80706;DHT22;70229;48.010;7.852;2023-07-20T13:32:42;29.30;38.20
80706;DHT22;70229;48.010;7.852;2023-07-20T13:35:09;28.90;39.50
80706;DHT22;70229;48.010;7.852;2023-07-20T13:37:35;28.60;39.70
80706;DHT22;70229;48.010;7.852;2023-07-20T13:40:00;28.80;40.20
80706;DHT22;70229;48.010;7.852;2023-07-20T13:42:26;29.00;41.50
80706;DHT22;70229;48.010;7.852;2023-07-20T13:44:52;29.00;39.40
80706;DHT22;70229;48.010;7.852;2023-07-20T13:47:17;29.30;40.30
80706;DHT22;70229;48.010;7.852;2023-07-20T13:49:43;29.30;39.20
80706;DHT22;70229;48.010;7.852;2023-07-20T13:52:09;29.30;39.20
80706;DHT22;70229;48.010;7.852;2023-07-20T13:54:35;29.70;40.50
80706;DHT22;70229;48.010;7.852;2023-07-20T13:57:00;29.80;38.30
80706;DHT22;70229;48.010;7.852;2023-07-20T13:59:26;29.70;38.90
80706;DHT22;70229;48.010;7.852;2023-07-20T14:01:52;29.80;39.60
80706;DHT22;70229;48.010;7.852;2023-07-20T14:04:17;29.90;38.20
80706;DHT22;70229;48.010;7.852;2023-07-20T14:06:43;28.70;37.60
80706;DHT22;70229;48.010;7.852;2023-07-20T14:09:09;30.00;38.20
80706;DHT22;70229;48.010;7.852;2023-07-20T14:11:35;30.00;39.10
80706;DHT22;70229;48.010;7.852;2023-07-20T14:14:01;29.90;38.20
80706;DHT22;70229;48.010;7.852;2023-07-20T14:16:26;30.00;37.40
80706;DHT22;70229;48.010;7.852;2023-07-20T14:18:52;29.70;38.70
80706;DHT22;70229;48.010;7.852;2023-07-20T14:21:19;29.70;38.70
80706;DHT22;70229;48.010;7.852;2023-07-20T14:23:51;29.80;37.70
80706;DHT22;70229;48.010;7.852;2023-07-20T14:26:17;29.60;38.00
80706;DHT22;70229;48.010;7.852;2023-07-20T14:28:42;29.50;40.30
80706;DHT22;70229;48.010;7.852;2023-07-20T14:31:08;29.90;39.10
80706;DHT22;70229;48.010;7.852;2023-07-20T14:33:34;29.60;38.10
80706;DHT22;70229;48.010;7.852;2023-07-20T14:36:00;29.60;39.00
80706;DHT22;70229;48.010;7.852;2023-07-20T14:38:27;29.90;40.00
80706;DHT22;70229;48.010;7.852;2023-07-20T14:40:54;29.90;39.10
80706;DHT22;70229;48.010;7.852;2023-07-20T14:43:19;29.80;38.40
80706;DHT22;70229;48.010;7.852;2023-07-20T14:45:45;29.50;38.90
80706;DHT22;70229;48.010;7.852;2023-07-20T14:48:11;29.80;40.10
80706;DHT22;70229;48.010;7.852;2023-07-20T14:50:36;29.40;38.60
80706;DHT22;70229;48.010;7.852;2023-07-20T14:53:02;29.10;39.40
80706;DHT22;70229;48.010;7.852;2023-07-20T14:55:28;29.40;38.80
80706;DHT22;70229;48.010;7.852;2023-07-20T14:57:54;29.60;39.20
80706;DHT22;70229;48.010;7.852;2023-07-20T15:00:19;29.60;38.70
80706;DHT22;70229;48.010;7.852;2023-07-20T15:02:45;30.00;39.20
80706;DHT22;70229;48.010;7.852;2023-07-20T15:05:11;29.70;37.50
80706;DHT22;70229;48.010;7.852;2023-07-20T15:07:39;29.20;38.70
80706;DHT22;70229;48.010;7.852;2023-07-20T15:10:06;29.90;39.00
80706;DHT22;70229;48.010;7.852;2023-07-20T15:12:32;30.00;39.10
80706;DHT22;70229;48.010;7.852;2023-07-20T15:15:06;30.10;39.50
80706;DHT22;70229;48.010;7.852;2023-07-20T15:17:32;30.20;37.40
80706;DHT22;70229;48.010;7.852;2023-07-20T15:19:58;30.00;37.50
80706;DHT22;70229;48.010;7.852;2023-07-20T15:22:24;30.10;37.90
80706;DHT22;70229;48.010;7.852;2023-07-20T15:24:50;30.20;37.80
80706;DHT22;70229;48.010;7.852;2023-07-20T15:27:16;29.70;37.20
80706;DHT22;70229;48.010;7.852;2023-07-20T15:29:42;29.80;37.50
80706;DHT22;70229;48.010;7.852;2023-07-20T15:32:07;30.10;37.80
80706;DHT22;70229;48.010;7.852;2023-07-20T15:34:34;29.90;37.60
80706;DHT22;70229;48.010;7.852;2023-07-20T15:37:00;29.90;37.70
80706;DHT22;70229;48.010;7.852;2023-07-20T15:39:26;30.20;37.80
80706;DHT22;70229;48.010;7.852;2023-07-20T15:41:52;30.40;37.00
80706;DHT22;70229;48.010;7.852;2023-07-20T15:44:18;30.40;36.50
80706;DHT22;70229;48.010;7.852;2023-07-20T15:46:46;30.10;37.20
80706;DHT22;70229;48.010;7.852;2023-07-20T15:49:11;30.60;36.30
80706;DHT22;70229;48.010;7.852;2023-07-20T15:51:37;30.40;36.10
80706;DHT22;70229;48.010;7.852;2023-07-20T15:54:09;30.70;37.80
80706;DHT22;70229;48.010;7.852;2023-07-20T15:56:36;30.60;37.70